sensor_id;sensor_type;location;lat;lon;timestamp;temperature;humidity
11320;DHT22;5715;48.234;14.320;2022-11-09T00:02:04;6.20;99.90
11320;DHT22;5715;48.234;14.320;2022-11-09T00:04:52;6.20;99.90
11320;DHT22;5715;48.234;14.320;2022-11-09T00:07:39;6.20;99.90
11320;DHT22;5715;48.234;14.320;2022-11-09T00:10:27;6.10;99.90
11320;DHT22;5715;48.234;14.320;2022-11-09T00:13:14;6.20;99.90
11320;DHT22;5715;48.234;14.320;2022-11-09T00:16:03;6.20;99.90
11320;DHT22;5715;48.234;14.320;2022-11-09T00:18:52;6.10;99.90
11320;DHT22;5715;48.234;14.320;2022-11-09T00:21:40;6.10;99.90
11320;DHT22;5715;48.234;14.320;2022-11-09T00:24:27;6.20;99.90
11320;DHT22;5715;48.234;14.320;2022-11-09T00:27:15;6.20;99.90
11320;DHT22;5715;48.234;14.320;2022-11-09T00:30:04;6.20;99.90
11320;DHT22;5715;48.234;14.320;2022-11-09T00:32:52;6.20;99.90
11320;DHT22;5715;48.234;14.320;2022-11-09T00:35:39;6.20;99.90
11320;DHT22;5715;48.234;14.320;2022-11-09T00:38:27;6.20;99.90
11320;DHT22;5715;48.234;14.320;2022-11-09T00:41:15;6.10;99.90
11320;DHT22;5715;48.234;14.320;2022-11-09T00:44:03;6.10;99.90
11320;DHT22;5715;48.234;14.320;2022-11-09T00:46:50;6.10;99.90
11320;DHT22;5715;48.234;14.320;2022-11-09T00:49:38;6.10;99.90
11320;DHT22;5715;48.234;14.320;2022-11-09T00:52:25;6.10;99.90
11320;DHT22;5715;48.234;14.320;2022-11-09T00:55:13;6.10;99.90
11320;DHT22;5715;48.234;14.320;2022-11-09T00:58:01;6.10;99.90
11320;DHT22;5715;48.234;14.320;2022-11-09T01:00:48;6.10;99.90
11320;DHT22;5715;48.234;14.320;2022-11-09T01:03:37;6.10;99.90
11320;DHT22;5715;48.234;14.320;2022-11-09T01:06:25;6.20;99.90
11320;DHT22;5715;48.234;14.320;2022-11-09T01:09:13;6.20;99.90
11320;DHT22;5715;48.234;14.320;2022-11-09T01:12:00;6.10;99.90
11320;DHT22;5715;48.234;14.320;2022-11-09T01:14:48;6.20;99.90
11320;DHT22;5715;48.234;14.320;2022-11-09T01:17:35;6.20;99.90
11320;DHT22;5715;48.234;14.320;2022-11-09T01:20:23;6.20;99.90
11320;DHT22;5715;48.234;14.320;2022-11-09T01:23:12;6.10;99.90
11320;DHT22;5715;48.234;14.320;2022-11-09T01:26:02;6.10;99.90
11320;DHT22;5715;48.234;14.320;2022-11-09T01:28:52;6.00;99.90
11320;DHT22;5715;48.234;14.320;2022-11-09T01:31:39;6.10;99.90
11320;DHT22;5715;48.234;14.320;2022-11-09T01:34:27;6.00;99.90
11320;DHT22;5715;48.234;14.320;2022-11-09T01:37:15;6.00;99.90
11320;DHT22;5715;48.234;14.320;2022-11-09T01:40:03;6.00;99.90
11320;DHT22;5715;48.234;14.320;2022-11-09T01:42:51;6.00;99.90
11320;DHT22;5715;48.234;14.320;2022-11-09T01:45:39;6.00;99.90
11320;DHT22;5715;48.234;14.320;2022-11-09T01:48:50;6.00;99.90
11320;DHT22;5715;48.234;14.320;2022-11-09T01:51:50;6.00;99.90
11320;DHT22;5715;48.234;14.320;2022-11-09T01:54:45;6.10;99.90
11320;DHT22;5715;48.234;14.320;2022-11-09T01:57:50;6.10;99.90
11320;DHT22;5715;48.234;14.320;2022-11-09T02:00:46;6.10;99.90
11320;DHT22;5715;48.234;14.320;2022-11-09T02:03:42;6.10;99.90
11320;DHT22;5715;48.234;14.320;2022-11-09T02:06:42;6.00;99.90
11320;DHT22;5715;48.234;14.320;2022-11-09T02:10:03;6.00;99.90
11320;DHT22;5715;48.234;14.320;2022-11-09T02:12:58;6.00;99.90
11320;DHT22;5715;48.234;14.320;2022-11-09T02:15:48;6.00;99.90
11320;DHT22;5715;48.234;14.320;2022-11-09T02:18:43;6.00;99.90
11320;DHT22;5715;48.234;14.320;2022-11-09T02:21:39;6.00;99.90
11320;DHT22;5715;48.234;14.320;2022-11-09T02:24:26;6.00;99.90
11320;DHT22;5715;48.234;14.320;2022-11-09T02:27:14;6.00;99.90
11320;DHT22;5715;48.234;14.320;2022-11-09T02:30:04;6.00;99.90
11320;DHT22;5715;48.234;14.320;2022-11-09T02:32:52;6.00;99.90
11320;DHT22;5715;48.234;14.320;2022-11-09T02:35:40;5.90;99.90
11320;DHT22;5715;48.234;14.320;2022-11-09T02:38:27;5.90;99.90
11320;DHT22;5715;48.234;14.320;2022-11-09T02:41:15;6.00;99.90
11320;DHT22;5715;48.234;14.320;2022-11-09T02:44:03;6.00;99.90
11320;DHT22;5715;48.234;14.320;2022-11-09T02:46:51;6.00;99.90
11320;DHT22;5715;48.234;14.320;2022-11-09T02:49:39;6.00;99.90
11320;DHT22;5715;48.234;14.320;2022-11-09T02:52:26;6.00;99.90
11320;DHT22;5715;48.234;14.320;2022-11-09T02:55:14;6.00;99.90
11320;DHT22;5715;48.234;14.320;2022-11-09T02:58:01;5.90;99.90
11320;DHT22;5715;48.234;14.320;2022-11-09T03:00:49;5.90;99.90
11320;DHT22;5715;48.234;14.320;2022-11-09T03:03:36;5.90;99.90
11320;DHT22;5715;48.234;14.320;2022-11-09T03:06:24;5.90;99.90
11320;DHT22;5715;48.234;14.320;2022-11-09T03:09:20;5.90;99.90
11320;DHT22;5715;48.234;14.320;2022-11-09T03:12:08;5.90;99.90
11320;DHT22;5715;48.234;14.320;2022-11-09T03:15:22;5.80;99.90
11320;DHT22;5715;48.234;14.320;2022-11-09T03:18:09;5.80;99.90
11320;DHT22;5715;48.234;14.320;2022-11-09T03:21:01;5.80;99.90
11320;DHT22;5715;48.234;14.320;2022-11-09T03:23:50;5.80;99.90
11320;DHT22;5715;48.234;14.320;2022-11-09T03:26:40;5.80;99.90
11320;DHT22;5715;48.234;14.320;2022-11-09T03:29:27;5.80;99.90
11320;DHT22;5715;48.234;14.320;2022-11-09T03:32:15;5.70;99.90
11320;DHT22;5715;48.234;14.320;2022-11-09T03:35:02;5.70;99.90
11320;DHT22;5715;48.234;14.320;2022-11-09T03:37:50;5.70;99.90
11320;DHT22;5715;48.234;14.320;2022-11-09T03:40:38;5.70;99.90
11320;DHT22;5715;48.234;14.320;2022-11-09T03:43:29;5.70;99.90
11320;DHT22;5715;48.234;14.320;2022-11-09T03:46:17;5.70;99.90
11320;DHT22;5715;48.234;14.320;2022-11-09T03:49:05;5.70;99.90
11320;DHT22;5715;48.234;14.320;2022-11-09T03:51:52;5.70;99.90
11320;DHT22;5715;48.234;14.320;2022-11-09T03:54:40;5.70;99.90
11320;DHT22;5715;48.234;14.320;2022-11-09T03:57:28;5.80;99.90
11320;DHT22;5715;48.234;14.320;2022-11-09T04:00:19;5.70;99.90
11320;DHT22;5715;48.234;14.320;2022-11-09T04:03:07;5.80;99.90
11320;DHT22;5715;48.234;14.320;2022-11-09T04:05:57;5.80;99.90
11320;DHT22;5715;48.234;14.320;2022-11-09T04:08:45;5.80;99.90
11320;DHT22;5715;48.234;14.320;2022-11-09T04:11:37;5.80;99.90
11320;DHT22;5715;48.234;14.320;2022-11-09T04:14:25;5.80;99.90
11320;DHT22;5715;48.234;14.320;2022-11-09T04:17:12;5.90;99.90
11320;DHT22;5715;48.234;14.320;2022-11-09T04:19:59;5.90;99.90
11320;DHT22;5715;48.234;14.320;2022-11-09T04:22:59;5.90;99.90
11320;DHT22;5715;48.234;14.320;2022-11-09T04:25:48;5.90;99.90
11320;DHT22;5715;48.234;14.320;2022-11-09T04:28:35;5.90;99.90
11320;DHT22;5715;48.234;14.320;2022-11-09T04:31:23;5.80;99.90
11320;DHT22;5715;48.234;14.320;2022-11-09T04:34:15;5.90;99.90
11320;DHT22;5715;48.234;14.320;2022-11-09T04:37:03;5.80;99.90
11320;DHT22;5715;48.234;14.320;2022-11-09T04:39:51;5.80;99.90
11320;DHT22;5715;48.234;14.320;2022-11-09T04:42:38;5.70;99.90
11320;DHT22;5715;48.234;14.320;2022-11-09T04:45:26;5.70;99.90
11320;DHT22;5715;48.234;14.320;2022-11-09T04:48:14;5.70;99.90
11320;DHT22;5715;48.234;14.320;2022-11-09T04:51:04;5.60;99.90
11320;DHT22;5715;48.234;14.320;2022-11-09T04:53:53;5.70;99.90
11320;DHT22;5715;48.234;14.320;2022-11-09T04:56:42;5.70;99.90
11320;DHT22;5715;48.234;14.320;2022-11-09T04:59:29;5.60;99.90
11320;DHT22;5715;48.234;14.320;2022-11-09T05:02:17;5.40;99.90
11320;DHT22;5715;48.234;14.320;2022-11-09T05:05:05;5.50;99.90
11320;DHT22;5715;48.234;14.320;2022-11-09T05:07:53;5.50;99.90
11320;DHT22;5715;48.234;14.320;2022-11-09T05:10:40;5.50;99.90
11320;DHT22;5715;48.234;14.320;2022-11-09T05:13:28;5.60;99.90
11320;DHT22;5715;48.234;14.320;2022-11-09T05:16:15;5.60;99.90
11320;DHT22;5715;48.234;14.320;2022-11-09T05:19:03;5.50;99.90
11320;DHT22;5715;48.234;14.320;2022-11-09T05:21:51;5.50;99.90
11320;DHT22;5715;48.234;14.320;2022-11-09T05:24:38;5.40;99.90
11320;DHT22;5715;48.234;14.320;2022-11-09T05:27:26;5.40;99.90
11320;DHT22;5715;48.234;14.320;2022-11-09T05:30:13;5.40;99.90
11320;DHT22;5715;48.234;14.320;2022-11-09T05:33:01;5.50;99.90
11320;DHT22;5715;48.234;14.320;2022-11-09T05:35:49;5.50;99.90
11320;DHT22;5715;48.234;14.320;2022-11-09T05:38:37;5.40;99.90
11320;DHT22;5715;48.234;14.320;2022-11-09T05:41:24;5.50;99.90
11320;DHT22;5715;48.234;14.320;2022-11-09T05:44:12;5.40;99.90
11320;DHT22;5715;48.234;14.320;2022-11-09T05:47:00;5.40;99.90
11320;DHT22;5715;48.234;14.320;2022-11-09T05:49:47;5.40;99.90
11320;DHT22;5715;48.234;14.320;2022-11-09T05:52:35;5.40;99.90
11320;DHT22;5715;48.234;14.320;2022-11-09T05:55:23;5.50;99.90
11320;DHT22;5715;48.234;14.320;2022-11-09T05:58:10;5.50;99.90
11320;DHT22;5715;48.234;14.320;2022-11-09T06:00:58;5.40;99.90
11320;DHT22;5715;48.234;14.320;2022-11-09T06:03:46;5.40;99.90
11320;DHT22;5715;48.234;14.320;2022-11-09T06:06:34;5.40;99.90
11320;DHT22;5715;48.234;14.320;2022-11-09T06:09:21;5.50;99.90
11320;DHT22;5715;48.234;14.320;2022-11-09T06:12:09;5.60;99.90
11320;DHT22;5715;48.234;14.320;2022-11-09T06:14:56;5.60;99.90
11320;DHT22;5715;48.234;14.320;2022-11-09T06:17:43;5.60;99.90
11320;DHT22;5715;48.234;14.320;2022-11-09T06:20:38;5.60;99.90
11320;DHT22;5715;48.234;14.320;2022-11-09T06:23:25;5.60;99.90
11320;DHT22;5715;48.234;14.320;2022-11-09T06:26:15;5.50;99.90
11320;DHT22;5715;48.234;14.320;2022-11-09T06:29:03;5.50;99.90
11320;DHT22;5715;48.234;14.320;2022-11-09T06:31:52;5.60;99.90
11320;DHT22;5715;48.234;14.320;2022-11-09T06:34:39;5.50;99.90
11320;DHT22;5715;48.234;14.320;2022-11-09T06:37:29;5.50;99.90
11320;DHT22;5715;48.234;14.320;2022-11-09T06:40:16;5.50;99.90
11320;DHT22;5715;48.234;14.320;2022-11-09T06:43:04;5.50;99.90
11320;DHT22;5715;48.234;14.320;2022-11-09T06:45:52;5.60;99.90
11320;DHT22;5715;48.234;14.320;2022-11-09T06:48:40;5.60;99.90
11320;DHT22;5715;48.234;14.320;2022-11-09T06:51:28;5.60;99.90
11320;DHT22;5715;48.234;14.320;2022-11-09T06:54:16;5.60;99.90
11320;DHT22;5715;48.234;14.320;2022-11-09T06:57:03;5.50;99.90
11320;DHT22;5715;48.234;14.320;2022-11-09T06:59:51;5.50;99.90
11320;DHT22;5715;48.234;14.320;2022-11-09T07:02:41;5.40;99.90
11320;DHT22;5715;48.234;14.320;2022-11-09T07:05:29;5.40;99.90
11320;DHT22;5715;48.234;14.320;2022-11-09T07:08:17;5.40;99.90
11320;DHT22;5715;48.234;14.320;2022-11-09T07:11:13;5.40;99.90
11320;DHT22;5715;48.234;14.320;2022-11-09T07:14:05;5.50;99.90
11320;DHT22;5715;48.234;14.320;2022-11-09T07:16:53;5.50;99.90
11320;DHT22;5715;48.234;14.320;2022-11-09T07:19:40;5.60;99.90
11320;DHT22;5715;48.234;14.320;2022-11-09T07:22:28;5.60;99.90
11320;DHT22;5715;48.234;14.320;2022-11-09T07:25:16;5.60;99.90
11320;DHT22;5715;48.234;14.320;2022-11-09T07:28:05;5.70;99.90
11320;DHT22;5715;48.234;14.320;2022-11-09T07:30:56;5.70;99.90
11320;DHT22;5715;48.234;14.320;2022-11-09T07:33:45;5.70;99.90
11320;DHT22;5715;48.234;14.320;2022-11-09T07:36:32;5.70;99.90
11320;DHT22;5715;48.234;14.320;2022-11-09T07:39:22;5.70;99.90
11320;DHT22;5715;48.234;14.320;2022-11-09T07:42:10;5.70;99.90
11320;DHT22;5715;48.234;14.320;2022-11-09T07:44:57;5.70;99.90
11320;DHT22;5715;48.234;14.320;2022-11-09T07:47:45;5.70;99.90
11320;DHT22;5715;48.234;14.320;2022-11-09T07:50:34;5.70;99.90
11320;DHT22;5715;48.234;14.320;2022-11-09T07:53:22;5.80;99.90
11320;DHT22;5715;48.234;14.320;2022-11-09T07:56:10;5.80;99.90
11320;DHT22;5715;48.234;14.320;2022-11-09T07:58:57;5.80;99.90
11320;DHT22;5715;48.234;14.320;2022-11-09T08:01:45;5.80;99.90
11320;DHT22;5715;48.234;14.320;2022-11-09T08:04:32;5.80;99.90
11320;DHT22;5715;48.234;14.320;2022-11-09T08:07:20;5.80;99.90
11320;DHT22;5715;48.234;14.320;2022-11-09T08:10:09;5.90;99.90
11320;DHT22;5715;48.234;14.320;2022-11-09T08:13:23;5.90;99.90
11320;DHT22;5715;48.234;14.320;2022-11-09T08:16:11;5.70;99.90
11320;DHT22;5715;48.234;14.320;2022-11-09T08:18:59;5.70;99.90
11320;DHT22;5715;48.234;14.320;2022-11-09T08:21:46;5.70;99.90
11320;DHT22;5715;48.234;14.320;2022-11-09T08:24:34;5.60;99.90
11320;DHT22;5715;48.234;14.320;2022-11-09T08:27:21;5.60;99.90
11320;DHT22;5715;48.234;14.320;2022-11-09T08:30:19;5.70;99.90
11320;DHT22;5715;48.234;14.320;2022-11-09T08:33:08;5.80;99.90
11320;DHT22;5715;48.234;14.320;2022-11-09T08:35:56;5.90;99.90
11320;DHT22;5715;48.234;14.320;2022-11-09T08:38:44;5.90;99.90
11320;DHT22;5715;48.234;14.320;2022-11-09T08:41:32;6.00;99.90
11320;DHT22;5715;48.234;14.320;2022-11-09T08:44:19;6.00;99.90
11320;DHT22;5715;48.234;14.320;2022-11-09T08:47:08;6.10;99.90
11320;DHT22;5715;48.234;14.320;2022-11-09T08:49:56;6.20;99.90
11320;DHT22;5715;48.234;14.320;2022-11-09T08:52:43;6.30;99.90
11320;DHT22;5715;48.234;14.320;2022-11-09T08:55:31;6.30;99.90
11320;DHT22;5715;48.234;14.320;2022-11-09T08:58:19;6.40;99.90
11320;DHT22;5715;48.234;14.320;2022-11-09T09:01:08;6.40;99.90
11320;DHT22;5715;48.234;14.320;2022-11-09T09:04:02;6.40;99.90
11320;DHT22;5715;48.234;14.320;2022-11-09T09:06:50;6.50;99.90
11320;DHT22;5715;48.234;14.320;2022-11-09T09:09:38;6.50;99.90
11320;DHT22;5715;48.234;14.320;2022-11-09T09:12:26;6.60;99.90
11320;DHT22;5715;48.234;14.320;2022-11-09T09:15:13;6.60;99.90
11320;DHT22;5715;48.234;14.320;2022-11-09T09:18:02;6.60;99.90
11320;DHT22;5715;48.234;14.320;2022-11-09T09:20:50;6.40;99.90
11320;DHT22;5715;48.234;14.320;2022-11-09T09:23:38;6.40;99.90
11320;DHT22;5715;48.234;14.320;2022-11-09T09:26:25;6.40;99.90
11320;DHT22;5715;48.234;14.320;2022-11-09T09:29:13;6.50;99.90
11320;DHT22;5715;48.234;14.320;2022-11-09T09:32:00;6.40;99.90
11320;DHT22;5715;48.234;14.320;2022-11-09T09:34:48;6.60;99.90
11320;DHT22;5715;48.234;14.320;2022-11-09T09:37:35;6.60;99.90
11320;DHT22;5715;48.234;14.320;2022-11-09T09:40:28;6.50;99.90
11320;DHT22;5715;48.234;14.320;2022-11-09T09:49:58;6.70;99.90
11320;DHT22;5715;48.234;14.320;2022-11-09T09:56:35;6.80;99.90
11320;DHT22;5715;48.234;14.320;2022-11-09T09:59:40;6.70;99.90
11320;DHT22;5715;48.234;14.320;2022-11-09T10:02:34;6.80;99.90
11320;DHT22;5715;48.234;14.320;2022-11-09T10:05:45;6.70;99.90
11320;DHT22;5715;48.234;14.320;2022-11-09T10:09:17;6.80;99.90
11320;DHT22;5715;48.234;14.320;2022-11-09T10:12:07;6.80;99.90
11320;DHT22;5715;48.234;14.320;2022-11-09T10:15:24;6.60;99.90
11320;DHT22;5715;48.234;14.320;2022-11-09T10:19:18;6.50;99.90
11320;DHT22;5715;48.234;14.320;2022-11-09T10:25:36;6.80;99.90
11320;DHT22;5715;48.234;14.320;2022-11-09T10:28:52;6.90;99.90
11320;DHT22;5715;48.234;14.320;2022-11-09T10:32:14;7.00;99.90
11320;DHT22;5715;48.234;14.320;2022-11-09T10:38:21;7.00;99.90
11320;DHT22;5715;48.234;14.320;2022-11-09T10:41:33;7.10;99.90
11320;DHT22;5715;48.234;14.320;2022-11-09T10:44:27;7.20;99.90
11320;DHT22;5715;48.234;14.320;2022-11-09T10:47:16;7.10;99.90
11320;DHT22;5715;48.234;14.320;2022-11-09T10:53:15;7.20;99.90
11320;DHT22;5715;48.234;14.320;2022-11-09T10:56:16;7.20;99.90
11320;DHT22;5715;48.234;14.320;2022-11-09T11:02:38;7.10;99.90
11320;DHT22;5715;48.234;14.320;2022-11-09T11:05:28;6.90;99.90
11320;DHT22;5715;48.234;14.320;2022-11-09T11:08:38;7.00;99.90
11320;DHT22;5715;48.234;14.320;2022-11-09T11:11:29;7.00;99.90
11320;DHT22;5715;48.234;14.320;2022-11-09T11:14:30;7.20;99.90
11320;DHT22;5715;48.234;14.320;2022-11-09T11:17:28;7.40;99.90
11320;DHT22;5715;48.234;14.320;2022-11-09T11:20:33;7.50;99.90
11320;DHT22;5715;48.234;14.320;2022-11-09T11:23:24;7.70;99.90
11320;DHT22;5715;48.234;14.320;2022-11-09T11:26:28;7.60;99.90
11320;DHT22;5715;48.234;14.320;2022-11-09T11:29:25;7.60;99.90
11320;DHT22;5715;48.234;14.320;2022-11-09T11:32:19;7.70;99.90
11320;DHT22;5715;48.234;14.320;2022-11-09T11:48:46;7.80;99.90
11320;DHT22;5715;48.234;14.320;2022-11-09T11:52:10;8.00;99.90
11320;DHT22;5715;48.234;14.320;2022-11-09T11:55:16;7.90;99.90
11320;DHT22;5715;48.234;14.320;2022-11-09T11:58:41;7.90;99.90
11320;DHT22;5715;48.234;14.320;2022-11-09T12:08:24;7.90;99.90
11320;DHT22;5715;48.234;14.320;2022-11-09T12:15:01;8.00;99.90
11320;DHT22;5715;48.234;14.320;2022-11-09T12:24:44;8.00;99.90
11320;DHT22;5715;48.234;14.320;2022-11-09T12:34:18;8.10;99.90
11320;DHT22;5715;48.234;14.320;2022-11-09T12:37:39;8.10;99.90
11320;DHT22;5715;48.234;14.320;2022-11-09T12:40:41;8.10;99.90
11320;DHT22;5715;48.234;14.320;2022-11-09T12:43:51;8.10;99.90
11320;DHT22;5715;48.234;14.320;2022-11-09T12:47:05;8.10;99.90
11320;DHT22;5715;48.234;14.320;2022-11-09T12:50:01;8.10;99.90
11320;DHT22;5715;48.234;14.320;2022-11-09T12:52:50;8.00;99.90
11320;DHT22;5715;48.234;14.320;2022-11-09T12:58:32;7.90;99.90
11320;DHT22;5715;48.234;14.320;2022-11-09T13:04:22;7.90;99.90
11320;DHT22;5715;48.234;14.320;2022-11-09T13:07:29;7.80;99.90
11320;DHT22;5715;48.234;14.320;2022-11-09T13:10:35;7.80;99.90
11320;DHT22;5715;48.234;14.320;2022-11-09T13:13:24;7.70;99.90
11320;DHT22;5715;48.234;14.320;2022-11-09T13:16:32;7.60;99.90
11320;DHT22;5715;48.234;14.320;2022-11-09T13:25:45;7.50;99.90
11320;DHT22;5715;48.234;14.320;2022-11-09T13:28:41;7.50;99.90
11320;DHT22;5715;48.234;14.320;2022-11-09T13:32:00;7.40;99.90
11320;DHT22;5715;48.234;14.320;2022-11-09T13:34:51;7.40;99.90
11320;DHT22;5715;48.234;14.320;2022-11-09T13:37:52;7.40;99.90
11320;DHT22;5715;48.234;14.320;2022-11-09T13:43:34;7.50;99.90
11320;DHT22;5715;48.234;14.320;2022-11-09T13:46:28;7.50;99.90
11320;DHT22;5715;48.234;14.320;2022-11-09T13:49:41;7.50;99.90
11320;DHT22;5715;48.234;14.320;2022-11-09T13:55:40;7.30;99.90
11320;DHT22;5715;48.234;14.320;2022-11-09T13:58:33;7.40;99.90
11320;DHT22;5715;48.234;14.320;2022-11-09T14:04:36;7.40;99.90
11320;DHT22;5715;48.234;14.320;2022-11-09T14:07:27;7.40;99.90
11320;DHT22;5715;48.234;14.320;2022-11-09T14:10:40;7.40;99.90
11320;DHT22;5715;48.234;14.320;2022-11-09T14:13:39;7.40;99.90
11320;DHT22;5715;48.234;14.320;2022-11-09T14:20:35;7.30;99.90
11320;DHT22;5715;48.234;14.320;2022-11-09T14:23:19;7.30;99.90
11320;DHT22;5715;48.234;14.320;2022-11-09T14:26:15;7.30;99.90
11320;DHT22;5715;48.234;14.320;2022-11-09T14:29:26;7.20;99.90
11320;DHT22;5715;48.234;14.320;2022-11-09T14:32:34;7.10;99.90
11320;DHT22;5715;48.234;14.320;2022-11-09T14:35:29;7.10;99.90
11320;DHT22;5715;48.234;14.320;2022-11-09T14:38:23;7.10;99.90
11320;DHT22;5715;48.234;14.320;2022-11-09T14:41:21;7.10;99.90
11320;DHT22;5715;48.234;14.320;2022-11-09T14:44:18;7.20;99.90
11320;DHT22;5715;48.234;14.320;2022-11-09T14:47:23;7.30;99.90
11320;DHT22;5715;48.234;14.320;2022-11-09T14:53:27;7.20;99.90
11320;DHT22;5715;48.234;14.320;2022-11-09T14:56:18;7.10;99.90
11320;DHT22;5715;48.234;14.320;2022-11-09T14:59:12;7.10;99.90
11320;DHT22;5715;48.234;14.320;2022-11-09T15:02:07;7.10;99.90
11320;DHT22;5715;48.234;14.320;2022-11-09T15:05:02;7.00;99.90
11320;DHT22;5715;48.234;14.320;2022-11-09T15:07:51;7.10;99.90
11320;DHT22;5715;48.234;14.320;2022-11-09T15:10:39;7.00;99.90
11320;DHT22;5715;48.234;14.320;2022-11-09T15:13:30;6.90;99.90
11320;DHT22;5715;48.234;14.320;2022-11-09T15:16:28;6.90;99.90
11320;DHT22;5715;48.234;14.320;2022-11-09T15:28:43;6.80;99.90
11320;DHT22;5715;48.234;14.320;2022-11-09T15:31:33;6.90;99.90
11320;DHT22;5715;48.234;14.320;2022-11-09T15:34:24;6.80;99.90
11320;DHT22;5715;48.234;14.320;2022-11-09T15:37:24;6.80;99.90
11320;DHT22;5715;48.234;14.320;2022-11-09T15:40:20;6.70;99.90
11320;DHT22;5715;48.234;14.320;2022-11-09T15:43:09;6.70;99.90
11320;DHT22;5715;48.234;14.320;2022-11-09T15:45:58;6.70;99.90
11320;DHT22;5715;48.234;14.320;2022-11-09T15:48:46;6.70;99.90
11320;DHT22;5715;48.234;14.320;2022-11-09T15:51:34;6.70;99.90
11320;DHT22;5715;48.234;14.320;2022-11-09T15:54:22;6.70;99.90
11320;DHT22;5715;48.234;14.320;2022-11-09T15:57:14;6.70;99.90
11320;DHT22;5715;48.234;14.320;2022-11-09T16:00:05;6.60;99.90
11320;DHT22;5715;48.234;14.320;2022-11-09T16:03:01;6.60;99.90
11320;DHT22;5715;48.234;14.320;2022-11-09T16:05:48;6.60;99.90
11320;DHT22;5715;48.234;14.320;2022-11-09T16:08:36;6.60;99.90
11320;DHT22;5715;48.234;14.320;2022-11-09T16:11:23;6.60;99.90
11320;DHT22;5715;48.234;14.320;2022-11-09T16:14:11;6.50;99.90
11320;DHT22;5715;48.234;14.320;2022-11-09T16:16:58;6.50;99.90
11320;DHT22;5715;48.234;14.320;2022-11-09T16:19:46;6.50;99.90
11320;DHT22;5715;48.234;14.320;2022-11-09T16:22:33;6.50;99.90
11320;DHT22;5715;48.234;14.320;2022-11-09T16:25:21;6.50;99.90
11320;DHT22;5715;48.234;14.320;2022-11-09T16:28:09;6.50;99.90
11320;DHT22;5715;48.234;14.320;2022-11-09T16:30:57;6.50;99.90
11320;DHT22;5715;48.234;14.320;2022-11-09T16:33:44;6.50;99.90
11320;DHT22;5715;48.234;14.320;2022-11-09T16:36:32;6.50;99.90
11320;DHT22;5715;48.234;14.320;2022-11-09T16:39:20;6.60;99.90
11320;DHT22;5715;48.234;14.320;2022-11-09T16:42:09;6.60;99.90
11320;DHT22;5715;48.234;14.320;2022-11-09T16:45:07;6.60;99.90
11320;DHT22;5715;48.234;14.320;2022-11-09T16:47:57;6.70;99.90
11320;DHT22;5715;48.234;14.320;2022-11-09T16:50:44;6.60;99.90
11320;DHT22;5715;48.234;14.320;2022-11-09T16:53:33;6.60;99.90
11320;DHT22;5715;48.234;14.320;2022-11-09T16:56:20;6.60;99.90
11320;DHT22;5715;48.234;14.320;2022-11-09T16:59:08;6.60;99.90
11320;DHT22;5715;48.234;14.320;2022-11-09T17:01:57;6.80;99.90
11320;DHT22;5715;48.234;14.320;2022-11-09T17:04:45;6.60;99.90
11320;DHT22;5715;48.234;14.320;2022-11-09T17:07:33;6.60;99.90
11320;DHT22;5715;48.234;14.320;2022-11-09T17:10:28;6.50;99.90
11320;DHT22;5715;48.234;14.320;2022-11-09T17:13:15;6.50;99.90
11320;DHT22;5715;48.234;14.320;2022-11-09T17:16:08;6.50;99.90
11320;DHT22;5715;48.234;14.320;2022-11-09T17:18:58;6.40;99.90
11320;DHT22;5715;48.234;14.320;2022-11-09T17:21:46;6.40;99.90
11320;DHT22;5715;48.234;14.320;2022-11-09T17:24:33;6.40;99.90
11320;DHT22;5715;48.234;14.320;2022-11-09T17:27:21;6.50;99.90
11320;DHT22;5715;48.234;14.320;2022-11-09T17:30:09;6.50;99.90
11320;DHT22;5715;48.234;14.320;2022-11-09T17:32:57;6.60;99.90
11320;DHT22;5715;48.234;14.320;2022-11-09T17:35:45;6.50;99.90
11320;DHT22;5715;48.234;14.320;2022-11-09T17:38:33;6.50;99.90
11320;DHT22;5715;48.234;14.320;2022-11-09T17:41:21;6.50;99.90
11320;DHT22;5715;48.234;14.320;2022-11-09T17:44:09;6.50;99.90
11320;DHT22;5715;48.234;14.320;2022-11-09T17:46:57;6.50;99.90
11320;DHT22;5715;48.234;14.320;2022-11-09T17:49:44;6.50;99.90
11320;DHT22;5715;48.234;14.320;2022-11-09T17:52:32;6.50;99.90
11320;DHT22;5715;48.234;14.320;2022-11-09T17:55:20;6.50;99.90
11320;DHT22;5715;48.234;14.320;2022-11-09T17:58:08;6.50;99.90
11320;DHT22;5715;48.234;14.320;2022-11-09T18:01:13;6.50;99.90
11320;DHT22;5715;48.234;14.320;2022-11-09T18:04:08;6.50;99.90
11320;DHT22;5715;48.234;14.320;2022-11-09T18:06:57;6.60;99.90
11320;DHT22;5715;48.234;14.320;2022-11-09T18:09:45;6.60;99.90
11320;DHT22;5715;48.234;14.320;2022-11-09T18:12:33;6.60;99.90
11320;DHT22;5715;48.234;14.320;2022-11-09T18:15:21;6.60;99.90
11320;DHT22;5715;48.234;14.320;2022-11-09T18:18:11;6.50;99.90
11320;DHT22;5715;48.234;14.320;2022-11-09T18:21:05;6.40;99.90
11320;DHT22;5715;48.234;14.320;2022-11-09T18:23:57;6.40;99.90
11320;DHT22;5715;48.234;14.320;2022-11-09T18:26:45;6.50;99.90
11320;DHT22;5715;48.234;14.320;2022-11-09T18:29:33;6.50;99.90
11320;DHT22;5715;48.234;14.320;2022-11-09T18:32:24;6.50;99.90
11320;DHT22;5715;48.234;14.320;2022-11-09T18:35:12;6.50;99.90
11320;DHT22;5715;48.234;14.320;2022-11-09T18:38:00;6.50;99.90
11320;DHT22;5715;48.234;14.320;2022-11-09T18:41:03;6.50;99.90
11320;DHT22;5715;48.234;14.320;2022-11-09T18:43:56;6.50;99.90
11320;DHT22;5715;48.234;14.320;2022-11-09T18:46:44;6.50;99.90
11320;DHT22;5715;48.234;14.320;2022-11-09T18:49:34;6.50;99.90
11320;DHT22;5715;48.234;14.320;2022-11-09T18:52:22;6.50;99.90
11320;DHT22;5715;48.234;14.320;2022-11-09T18:55:10;6.50;99.90
11320;DHT22;5715;48.234;14.320;2022-11-09T18:57:58;6.40;99.90
11320;DHT22;5715;48.234;14.320;2022-11-09T19:00:47;6.40;99.90
11320;DHT22;5715;48.234;14.320;2022-11-09T19:03:54;6.40;99.90
11320;DHT22;5715;48.234;14.320;2022-11-09T19:06:46;6.40;99.90
11320;DHT22;5715;48.234;14.320;2022-11-09T19:09:34;6.40;99.90
11320;DHT22;5715;48.234;14.320;2022-11-09T19:12:25;6.40;99.90
11320;DHT22;5715;48.234;14.320;2022-11-09T19:15:15;6.40;99.90
11320;DHT22;5715;48.234;14.320;2022-11-09T19:18:04;6.40;99.90
11320;DHT22;5715;48.234;14.320;2022-11-09T19:20:53;6.40;99.90
11320;DHT22;5715;48.234;14.320;2022-11-09T19:23:42;6.40;99.90
11320;DHT22;5715;48.234;14.320;2022-11-09T19:26:30;6.40;99.90
11320;DHT22;5715;48.234;14.320;2022-11-09T19:29:19;6.40;99.90
11320;DHT22;5715;48.234;14.320;2022-11-09T19:32:08;6.40;99.90
11320;DHT22;5715;48.234;14.320;2022-11-09T19:34:57;6.40;99.90
11320;DHT22;5715;48.234;14.320;2022-11-09T19:37:46;6.50;99.90
11320;DHT22;5715;48.234;14.320;2022-11-09T19:40:35;6.50;99.90
11320;DHT22;5715;48.234;14.320;2022-11-09T19:43:26;6.50;99.90
11320;DHT22;5715;48.234;14.320;2022-11-09T19:46:15;6.50;99.90
11320;DHT22;5715;48.234;14.320;2022-11-09T19:49:04;6.50;99.90
11320;DHT22;5715;48.234;14.320;2022-11-09T19:51:53;6.50;99.90
11320;DHT22;5715;48.234;14.320;2022-11-09T19:54:42;6.50;99.90
11320;DHT22;5715;48.234;14.320;2022-11-09T19:57:31;6.50;99.90
11320;DHT22;5715;48.234;14.320;2022-11-09T20:00:20;6.50;99.90